sensor_id;sensor_type;location;lat;lon;timestamp;P1;durP1;ratioP1;P2;durP2;ratioP2
1601;SDS011;794;48.592;9.634;2023-05-07T00:00:48;2.77;;;2.40;;
1601;SDS011;794;48.592;9.634;2023-05-07T00:03:16;12.50;;;2.30;;
1601;SDS011;794;48.592;9.634;2023-05-07T00:05:44;5.80;;;2.40;;
1601;SDS011;794;48.592;9.634;2023-05-07T00:08:11;3.20;;;1.90;;
1601;SDS011;794;48.592;9.634;2023-05-07T00:10:38;2.47;;;1.73;;
1601;SDS011;794;48.592;9.634;2023-05-07T00:13:05;2.00;;;1.90;;
1601;SDS011;794;48.592;9.634;2023-05-07T00:15:33;3.30;;;1.60;;
1601;SDS011;794;48.592;9.634;2023-05-07T00:18:00;2.40;;;2.20;;
1601;SDS011;794;48.592;9.634;2023-05-07T00:20:27;3.23;;;2.93;;
1601;SDS011;794;48.592;9.634;2023-05-07T00:22:54;2.13;;;1.93;;
1601;SDS011;794;48.592;9.634;2023-05-07T00:25:21;2.80;;;2.33;;
1601;SDS011;794;48.592;9.634;2023-05-07T00:27:48;2.83;;;2.63;;
1601;SDS011;794;48.592;9.634;2023-05-07T00:30:15;3.03;;;2.73;;
1601;SDS011;794;48.592;9.634;2023-05-07T00:32:43;3.30;;;2.50;;
1601;SDS011;794;48.592;9.634;2023-05-07T00:35:11;2.77;;;2.30;;
1601;SDS011;794;48.592;9.634;2023-05-07T00:37:38;2.67;;;2.20;;
1601;SDS011;794;48.592;9.634;2023-05-07T00:40:05;3.67;;;2.00;;
1601;SDS011;794;48.592;9.634;2023-05-07T00:42:33;2.40;;;2.20;;
1601;SDS011;794;48.592;9.634;2023-05-07T00:45:00;3.83;;;2.23;;
1601;SDS011;794;48.592;9.634;2023-05-07T00:47:27;2.27;;;2.13;;
1601;SDS011;794;48.592;9.634;2023-05-07T00:49:56;4.33;;;2.33;;
1601;SDS011;794;48.592;9.634;2023-05-07T00:52:24;1.80;;;1.70;;
1601;SDS011;794;48.592;9.634;2023-05-07T00:54:52;2.03;;;1.70;;
1601;SDS011;794;48.592;9.634;2023-05-07T00:57:20;2.60;;;2.40;;
1601;SDS011;794;48.592;9.634;2023-05-07T00:59:47;3.97;;;2.47;;
1601;SDS011;794;48.592;9.634;2023-05-07T01:02:14;2.63;;;2.43;;
1601;SDS011;794;48.592;9.634;2023-05-07T01:04:41;4.03;;;1.90;;
1601;SDS011;794;48.592;9.634;2023-05-07T01:07:09;2.97;;;2.00;;
1601;SDS011;794;48.592;9.634;2023-05-07T01:09:36;6.83;;;1.93;;
1601;SDS011;794;48.592;9.634;2023-05-07T01:12:04;2.50;;;2.30;;
1601;SDS011;794;48.592;9.634;2023-05-07T01:14:31;5.70;;;2.00;;
1601;SDS011;794;48.592;9.634;2023-05-07T01:16:59;2.70;;;2.03;;
1601;SDS011;794;48.592;9.634;2023-05-07T01:19:25;2.10;;;1.90;;
1601;SDS011;794;48.592;9.634;2023-05-07T01:21:55;4.33;;;2.23;;
1601;SDS011;794;48.592;9.634;2023-05-07T01:24:31;2.40;;;2.07;;
1601;SDS011;794;48.592;9.634;2023-05-07T01:26:58;4.03;;;2.07;;
1601;SDS011;794;48.592;9.634;2023-05-07T01:29:26;4.70;;;2.20;;
1601;SDS011;794;48.592;9.634;2023-05-07T01:31:54;3.47;;;1.93;;
1601;SDS011;794;48.592;9.634;2023-05-07T01:34:23;6.80;;;2.30;;
1601;SDS011;794;48.592;9.634;2023-05-07T01:36:53;2.67;;;2.47;;
1601;SDS011;794;48.592;9.634;2023-05-07T01:39:23;2.87;;;1.90;;
1601;SDS011;794;48.592;9.634;2023-05-07T01:41:53;2.90;;;2.53;;
1601;SDS011;794;48.592;9.634;2023-05-07T01:44:21;2.83;;;2.50;;
1601;SDS011;794;48.592;9.634;2023-05-07T01:46:48;3.83;;;2.80;;
1601;SDS011;794;48.592;9.634;2023-05-07T01:49:15;3.97;;;2.53;;
1601;SDS011;794;48.592;9.634;2023-05-07T01:51:43;3.30;;;3.00;;
1601;SDS011;794;48.592;9.634;2023-05-07T01:54:10;2.77;;;2.47;;
1601;SDS011;794;48.592;9.634;2023-05-07T01:56:37;2.80;;;2.43;;
1601;SDS011;794;48.592;9.634;2023-05-07T01:59:05;3.57;;;3.27;;
1601;SDS011;794;48.592;9.634;2023-05-07T02:01:32;2.80;;;2.53;;
1601;SDS011;794;48.592;9.634;2023-05-07T02:03:59;2.33;;;2.13;;
1601;SDS011;794;48.592;9.634;2023-05-07T02:06:26;2.70;;;2.50;;
1601;SDS011;794;48.592;9.634;2023-05-07T02:08:53;3.10;;;2.57;;
1601;SDS011;794;48.592;9.634;2023-05-07T02:11:20;3.00;;;2.50;;
1601;SDS011;794;48.592;9.634;2023-05-07T02:13:47;4.33;;;2.63;;
1601;SDS011;794;48.592;9.634;2023-05-07T02:16:15;5.80;;;3.23;;
1601;SDS011;794;48.592;9.634;2023-05-07T02:18:42;3.90;;;2.77;;
1601;SDS011;794;48.592;9.634;2023-05-07T02:21:09;2.73;;;2.53;;
1601;SDS011;794;48.592;9.634;2023-05-07T02:23:36;2.83;;;2.63;;
1601;SDS011;794;48.592;9.634;2023-05-07T02:26:03;4.50;;;3.00;;
1601;SDS011;794;48.592;9.634;2023-05-07T02:28:30;2.33;;;2.13;;
1601;SDS011;794;48.592;9.634;2023-05-07T02:31:00;2.63;;;2.43;;
1601;SDS011;794;48.592;9.634;2023-05-07T02:33:29;3.50;;;3.17;;
1601;SDS011;794;48.592;9.634;2023-05-07T02:35:56;4.00;;;2.93;;
1601;SDS011;794;48.592;9.634;2023-05-07T02:38:30;3.17;;;2.90;;
1601;SDS011;794;48.592;9.634;2023-05-07T02:40:57;2.87;;;2.67;;
1601;SDS011;794;48.592;9.634;2023-05-07T02:43:24;3.00;;;2.80;;
1601;SDS011;794;48.592;9.634;2023-05-07T02:45:59;3.37;;;2.33;;
1601;SDS011;794;48.592;9.634;2023-05-07T02:48:29;2.80;;;2.60;;
1601;SDS011;794;48.592;9.634;2023-05-07T02:50:58;3.47;;;3.10;;
1601;SDS011;794;48.592;9.634;2023-05-07T02:53:25;3.03;;;2.73;;
1601;SDS011;794;48.592;9.634;2023-05-07T02:55:52;3.47;;;3.17;;
1601;SDS011;794;48.592;9.634;2023-05-07T02:58:19;2.63;;;2.17;;
1601;SDS011;794;48.592;9.634;2023-05-07T03:00:46;3.23;;;2.73;;
1601;SDS011;794;48.592;9.634;2023-05-07T03:03:13;2.47;;;2.27;;
1601;SDS011;794;48.592;9.634;2023-05-07T03:05:41;3.30;;;3.00;;
1601;SDS011;794;48.592;9.634;2023-05-07T03:08:09;3.03;;;2.73;;
1601;SDS011;794;48.592;9.634;2023-05-07T03:10:36;3.33;;;2.80;;
1601;SDS011;794;48.592;9.634;2023-05-07T03:13:03;3.93;;;2.90;;
1601;SDS011;794;48.592;9.634;2023-05-07T03:15:30;2.40;;;2.20;;
1601;SDS011;794;48.592;9.634;2023-05-07T03:17:57;4.00;;;3.60;;
1601;SDS011;794;48.592;9.634;2023-05-07T03:20:24;3.47;;;2.87;;
1601;SDS011;794;48.592;9.634;2023-05-07T03:22:52;4.60;;;3.60;;
1601;SDS011;794;48.592;9.634;2023-05-07T03:25:19;4.23;;;3.50;;
1601;SDS011;794;48.592;9.634;2023-05-07T03:27:46;3.80;;;3.50;;
1601;SDS011;794;48.592;9.634;2023-05-07T03:30:13;8.37;;;3.47;;
1601;SDS011;794;48.592;9.634;2023-05-07T03:32:40;4.27;;;3.90;;
1601;SDS011;794;48.592;9.634;2023-05-07T03:35:07;3.60;;;3.10;;
1601;SDS011;794;48.592;9.634;2023-05-07T03:37:34;3.63;;;3.33;;
1601;SDS011;794;48.592;9.634;2023-05-07T03:40:03;3.93;;;3.63;;
1601;SDS011;794;48.592;9.634;2023-05-07T03:42:30;3.60;;;3.30;;
1601;SDS011;794;48.592;9.634;2023-05-07T03:44:57;3.73;;;3.43;;
1601;SDS011;794;48.592;9.634;2023-05-07T03:47:24;3.67;;;3.37;;
1601;SDS011;794;48.592;9.634;2023-05-07T03:49:51;2.93;;;2.70;;
1601;SDS011;794;48.592;9.634;2023-05-07T03:52:19;8.80;;;4.20;;
1601;SDS011;794;48.592;9.634;2023-05-07T03:54:52;4.57;;;3.47;;
1601;SDS011;794;48.592;9.634;2023-05-07T03:57:20;5.53;;;3.37;;
1601;SDS011;794;48.592;9.634;2023-05-07T03:59:47;4.27;;;3.70;;
1601;SDS011;794;48.592;9.634;2023-05-07T04:02:14;4.20;;;3.53;;
1601;SDS011;794;48.592;9.634;2023-05-07T04:04:41;3.00;;;2.80;;
1601;SDS011;794;48.592;9.634;2023-05-07T04:07:08;4.07;;;3.70;;
1601;SDS011;794;48.592;9.634;2023-05-07T04:09:35;4.03;;;3.63;;
1601;SDS011;794;48.592;9.634;2023-05-07T04:12:01;4.13;;;3.70;;
1601;SDS011;794;48.592;9.634;2023-05-07T04:14:30;4.67;;;4.27;;
1601;SDS011;794;48.592;9.634;2023-05-07T04:16:58;4.30;;;3.90;;
1601;SDS011;794;48.592;9.634;2023-05-07T04:19:25;4.07;;;3.67;;
1601;SDS011;794;48.592;9.634;2023-05-07T04:21:52;3.93;;;3.53;;
1601;SDS011;794;48.592;9.634;2023-05-07T04:24:18;6.50;;;3.70;;
1601;SDS011;794;48.592;9.634;2023-05-07T04:26:45;4.97;;;4.57;;
1601;SDS011;794;48.592;9.634;2023-05-07T04:29:12;10.70;;;8.10;;
1601;SDS011;794;48.592;9.634;2023-05-07T04:31:40;8.33;;;6.97;;
1601;SDS011;794;48.592;9.634;2023-05-07T04:34:09;7.33;;;5.17;;
1601;SDS011;794;48.592;9.634;2023-05-07T04:36:36;5.50;;;5.00;;
1601;SDS011;794;48.592;9.634;2023-05-07T04:39:03;7.07;;;5.20;;
1601;SDS011;794;48.592;9.634;2023-05-07T04:41:31;5.57;;;4.97;;
1601;SDS011;794;48.592;9.634;2023-05-07T04:43:58;4.77;;;4.37;;
1601;SDS011;794;48.592;9.634;2023-05-07T04:46:25;5.37;;;4.60;;
1601;SDS011;794;48.592;9.634;2023-05-07T04:48:53;7.60;;;6.00;;
1601;SDS011;794;48.592;9.634;2023-05-07T04:51:20;5.77;;;5.10;;
1601;SDS011;794;48.592;9.634;2023-05-07T04:53:47;5.87;;;5.27;;
1601;SDS011;794;48.592;9.634;2023-05-07T04:56:14;6.53;;;4.80;;
1601;SDS011;794;48.592;9.634;2023-05-07T04:58:42;7.33;;;6.50;;
1601;SDS011;794;48.592;9.634;2023-05-07T05:01:09;8.27;;;7.67;;
1601;SDS011;794;48.592;9.634;2023-05-07T05:03:36;8.57;;;7.87;;
1601;SDS011;794;48.592;9.634;2023-05-07T05:06:05;8.30;;;7.60;;
1601;SDS011;794;48.592;9.634;2023-05-07T05:08:32;10.00;;;9.00;;
1601;SDS011;794;48.592;9.634;2023-05-07T05:11:00;9.03;;;8.20;;
1601;SDS011;794;48.592;9.634;2023-05-07T05:13:27;8.80;;;6.80;;
1601;SDS011;794;48.592;9.634;2023-05-07T05:15:54;8.23;;;5.80;;
1601;SDS011;794;48.592;9.634;2023-05-07T05:18:21;6.90;;;5.53;;
1601;SDS011;794;48.592;9.634;2023-05-07T05:20:47;6.23;;;5.63;;
1601;SDS011;794;48.592;9.634;2023-05-07T05:23:16;6.50;;;5.97;;
1601;SDS011;794;48.592;9.634;2023-05-07T05:25:43;5.13;;;4.63;;
1601;SDS011;794;48.592;9.634;2023-05-07T05:28:11;12.90;;;5.57;;
1601;SDS011;794;48.592;9.634;2023-05-07T05:30:38;10.93;;;9.27;;
1601;SDS011;794;48.592;9.634;2023-05-07T05:33:05;7.57;;;6.50;;
1601;SDS011;794;48.592;9.634;2023-05-07T05:35:32;6.07;;;5.57;;
1601;SDS011;794;48.592;9.634;2023-05-07T05:38:00;11.67;;;7.10;;
1601;SDS011;794;48.592;9.634;2023-05-07T05:40:28;9.40;;;7.10;;
1601;SDS011;794;48.592;9.634;2023-05-07T05:42:55;7.63;;;5.63;;
1601;SDS011;794;48.592;9.634;2023-05-07T05:45:22;5.63;;;5.13;;
1601;SDS011;794;48.592;9.634;2023-05-07T05:47:49;6.03;;;4.67;;
1601;SDS011;794;48.592;9.634;2023-05-07T05:50:16;5.73;;;4.50;;
1601;SDS011;794;48.592;9.634;2023-05-07T05:52:43;5.50;;;5.00;;
1601;SDS011;794;48.592;9.634;2023-05-07T05:55:10;7.60;;;5.63;;
1601;SDS011;794;48.592;9.634;2023-05-07T05:57:38;5.77;;;5.00;;
1601;SDS011;794;48.592;9.634;2023-05-07T06:00:05;4.80;;;4.40;;
1601;SDS011;794;48.592;9.634;2023-05-07T06:02:33;8.93;;;5.40;;
1601;SDS011;794;48.592;9.634;2023-05-07T06:05:00;4.70;;;4.30;;
1601;SDS011;794;48.592;9.634;2023-05-07T06:07:28;5.20;;;4.73;;
1601;SDS011;794;48.592;9.634;2023-05-07T06:09:54;5.50;;;5.00;;
1601;SDS011;794;48.592;9.634;2023-05-07T06:12:21;4.97;;;4.57;;
1601;SDS011;794;48.592;9.634;2023-05-07T06:14:50;4.63;;;4.27;;
1601;SDS011;794;48.592;9.634;2023-05-07T06:17:17;5.73;;;5.20;;
1601;SDS011;794;48.592;9.634;2023-05-07T06:19:44;4.70;;;4.30;;
1601;SDS011;794;48.592;9.634;2023-05-07T06:22:11;4.40;;;3.83;;
1601;SDS011;794;48.592;9.634;2023-05-07T06:24:37;5.13;;;4.67;;
1601;SDS011;794;48.592;9.634;2023-05-07T06:27:04;4.83;;;4.43;;
1601;SDS011;794;48.592;9.634;2023-05-07T06:29:31;5.23;;;4.10;;
1601;SDS011;794;48.592;9.634;2023-05-07T06:32:07;4.63;;;4.23;;
1601;SDS011;794;48.592;9.634;2023-05-07T06:34:34;4.97;;;4.20;;
1601;SDS011;794;48.592;9.634;2023-05-07T06:37:01;6.57;;;3.90;;
1601;SDS011;794;48.592;9.634;2023-05-07T06:39:28;3.90;;;3.60;;
1601;SDS011;794;48.592;9.634;2023-05-07T06:41:55;4.07;;;3.70;;
1601;SDS011;794;48.592;9.634;2023-05-07T06:44:23;4.17;;;3.77;;
1601;SDS011;794;48.592;9.634;2023-05-07T06:46:50;4.70;;;3.83;;
1601;SDS011;794;48.592;9.634;2023-05-07T06:49:19;4.53;;;4.13;;
1601;SDS011;794;48.592;9.634;2023-05-07T06:51:47;5.73;;;5.10;;
1601;SDS011;794;48.592;9.634;2023-05-07T06:54:14;5.70;;;4.63;;
1601;SDS011;794;48.592;9.634;2023-05-07T06:56:40;5.03;;;4.60;;
1601;SDS011;794;48.592;9.634;2023-05-07T06:59:07;5.50;;;5.00;;
1601;SDS011;794;48.592;9.634;2023-05-07T07:01:34;4.40;;;4.00;;
1601;SDS011;794;48.592;9.634;2023-05-07T07:04:02;6.07;;;5.57;;
1601;SDS011;794;48.592;9.634;2023-05-07T07:06:31;7.00;;;4.10;;
1601;SDS011;794;48.592;9.634;2023-05-07T07:08:58;4.53;;;4.13;;
1601;SDS011;794;48.592;9.634;2023-05-07T07:11:25;4.60;;;4.20;;
1601;SDS011;794;48.592;9.634;2023-05-07T07:13:51;5.07;;;4.60;;
1601;SDS011;794;48.592;9.634;2023-05-07T07:16:20;4.70;;;4.00;;
1601;SDS011;794;48.592;9.634;2023-05-07T07:18:47;4.73;;;4.33;;
1601;SDS011;794;48.592;9.634;2023-05-07T07:21:14;7.40;;;5.33;;
1601;SDS011;794;48.592;9.634;2023-05-07T07:23:42;4.83;;;4.43;;
1601;SDS011;794;48.592;9.634;2023-05-07T07:26:09;5.43;;;4.17;;
1601;SDS011;794;48.592;9.634;2023-05-07T07:28:41;5.23;;;4.83;;
1601;SDS011;794;48.592;9.634;2023-05-07T07:31:11;5.40;;;4.90;;
1601;SDS011;794;48.592;9.634;2023-05-07T07:33:38;6.27;;;5.00;;
1601;SDS011;794;48.592;9.634;2023-05-07T07:36:05;4.77;;;4.30;;
1601;SDS011;794;48.592;9.634;2023-05-07T07:38:33;6.90;;;4.30;;
1601;SDS011;794;48.592;9.634;2023-05-07T07:41:01;6.00;;;3.87;;
1601;SDS011;794;48.592;9.634;2023-05-07T07:43:28;4.63;;;4.23;;
1601;SDS011;794;48.592;9.634;2023-05-07T07:45:55;4.47;;;4.07;;
1601;SDS011;794;48.592;9.634;2023-05-07T07:48:23;6.10;;;4.10;;
1601;SDS011;794;48.592;9.634;2023-05-07T07:50:50;3.80;;;3.50;;
1601;SDS011;794;48.592;9.634;2023-05-07T07:53:17;3.50;;;3.20;;
1601;SDS011;794;48.592;9.634;2023-05-07T07:55:45;6.67;;;3.57;;
1601;SDS011;794;48.592;9.634;2023-05-07T07:58:13;8.13;;;3.60;;
1601;SDS011;794;48.592;9.634;2023-05-07T08:00:40;6.10;;;3.70;;
1601;SDS011;794;48.592;9.634;2023-05-07T08:03:09;4.50;;;4.03;;
1601;SDS011;794;48.592;9.634;2023-05-07T08:05:36;4.60;;;2.50;;
1601;SDS011;794;48.592;9.634;2023-05-07T08:08:04;3.90;;;2.57;;
1601;SDS011;794;48.592;9.634;2023-05-07T08:10:31;4.23;;;3.50;;
1601;SDS011;794;48.592;9.634;2023-05-07T08:12:59;7.03;;;3.80;;
1601;SDS011;794;48.592;9.634;2023-05-07T08:15:28;4.03;;;3.73;;
1601;SDS011;794;48.592;9.634;2023-05-07T08:17:55;3.60;;;3.07;;
1601;SDS011;794;48.592;9.634;2023-05-07T08:20:22;4.00;;;3.60;;
1601;SDS011;794;48.592;9.634;2023-05-07T08:22:49;3.47;;;3.13;;
1601;SDS011;794;48.592;9.634;2023-05-07T08:25:17;3.67;;;3.37;;
1601;SDS011;794;48.592;9.634;2023-05-07T08:27:44;3.50;;;3.20;;
1601;SDS011;794;48.592;9.634;2023-05-07T08:30:12;6.40;;;3.67;;
1601;SDS011;794;48.592;9.634;2023-05-07T08:32:41;4.50;;;2.73;;
1601;SDS011;794;48.592;9.634;2023-05-07T08:35:08;3.60;;;2.60;;
1601;SDS011;794;48.592;9.634;2023-05-07T08:37:35;3.23;;;2.30;;
1601;SDS011;794;48.592;9.634;2023-05-07T08:40:02;2.57;;;2.37;;
1601;SDS011;794;48.592;9.634;2023-05-07T08:42:30;3.50;;;3.20;;
1601;SDS011;794;48.592;9.634;2023-05-07T08:45:01;2.83;;;2.63;;
1601;SDS011;794;48.592;9.634;2023-05-07T08:47:34;3.33;;;2.10;;
1601;SDS011;794;48.592;9.634;2023-05-07T08:50:08;4.30;;;2.17;;
1601;SDS011;794;48.592;9.634;2023-05-07T08:52:36;2.03;;;1.70;;
1601;SDS011;794;48.592;9.634;2023-05-07T08:55:03;2.17;;;1.97;;
1601;SDS011;794;48.592;9.634;2023-05-07T08:57:31;2.03;;;1.90;;
1601;SDS011;794;48.592;9.634;2023-05-07T09:00:01;2.80;;;1.90;;
1601;SDS011;794;48.592;9.634;2023-05-07T09:02:29;2.50;;;2.30;;
1601;SDS011;794;48.592;9.634;2023-05-07T09:04:56;2.90;;;2.00;;
1601;SDS011;794;48.592;9.634;2023-05-07T09:07:24;2.10;;;1.90;;
1601;SDS011;794;48.592;9.634;2023-05-07T09:09:51;2.07;;;1.70;;
1601;SDS011;794;48.592;9.634;2023-05-07T09:12:21;2.60;;;2.30;;
1601;SDS011;794;48.592;9.634;2023-05-07T09:14:48;3.10;;;2.90;;
1601;SDS011;794;48.592;9.634;2023-05-07T09:17:15;3.40;;;2.47;;
1601;SDS011;794;48.592;9.634;2023-05-07T09:19:43;2.63;;;1.60;;
1601;SDS011;794;48.592;9.634;2023-05-07T09:22:11;2.73;;;1.93;;
1601;SDS011;794;48.592;9.634;2023-05-07T09:24:39;3.57;;;2.07;;
1601;SDS011;794;48.592;9.634;2023-05-07T09:27:07;5.63;;;2.73;;
1601;SDS011;794;48.592;9.634;2023-05-07T09:29:38;4.90;;;2.60;;
1601;SDS011;794;48.592;9.634;2023-05-07T09:32:05;3.40;;;2.40;;
1601;SDS011;794;48.592;9.634;2023-05-07T09:34:33;2.90;;;2.27;;
1601;SDS011;794;48.592;9.634;2023-05-07T09:37:01;2.97;;;2.20;;
1601;SDS011;794;48.592;9.634;2023-05-07T09:39:39;3.03;;;2.47;;
1601;SDS011;794;48.592;9.634;2023-05-07T09:42:06;4.83;;;2.40;;
1601;SDS011;794;48.592;9.634;2023-05-07T09:44:36;3.40;;;3.03;;
1601;SDS011;794;48.592;9.634;2023-05-07T09:47:04;4.77;;;3.50;;
1601;SDS011;794;48.592;9.634;2023-05-07T09:49:33;6.03;;;3.40;;
1601;SDS011;794;48.592;9.634;2023-05-07T09:52:02;3.43;;;2.77;;
1601;SDS011;794;48.592;9.634;2023-05-07T09:54:31;4.50;;;2.10;;
1601;SDS011;794;48.592;9.634;2023-05-07T09:57:05;3.63;;;2.40;;
1601;SDS011;794;48.592;9.634;2023-05-07T09:59:35;2.73;;;2.40;;
1601;SDS011;794;48.592;9.634;2023-05-07T10:02:04;3.10;;;2.73;;
1601;SDS011;794;48.592;9.634;2023-05-07T10:04:31;4.43;;;2.70;;
1601;SDS011;794;48.592;9.634;2023-05-07T10:07:04;2.60;;;2.40;;
1601;SDS011;794;48.592;9.634;2023-05-07T10:09:31;3.10;;;2.67;;
1601;SDS011;794;48.592;9.634;2023-05-07T10:12:03;3.30;;;2.27;;
1601;SDS011;794;48.592;9.634;2023-05-07T10:14:33;3.50;;;2.43;;
1601;SDS011;794;48.592;9.634;2023-05-07T10:17:01;3.37;;;2.50;;
1601;SDS011;794;48.592;9.634;2023-05-07T10:19:31;3.83;;;3.20;;
1601;SDS011;794;48.592;9.634;2023-05-07T10:21:59;3.80;;;3.30;;
1601;SDS011;794;48.592;9.634;2023-05-07T10:24:31;3.00;;;2.70;;
1601;SDS011;794;48.592;9.634;2023-05-07T10:27:00;3.20;;;2.90;;
1601;SDS011;794;48.592;9.634;2023-05-07T10:29:35;2.80;;;2.60;;
1601;SDS011;794;48.592;9.634;2023-05-07T10:32:14;2.97;;;2.77;;
1601;SDS011;794;48.592;9.634;2023-05-07T10:34:54;4.40;;;3.30;;
1601;SDS011;794;48.592;9.634;2023-05-07T10:37:23;2.83;;;2.63;;
1601;SDS011;794;48.592;9.634;2023-05-07T10:39:51;3.30;;;2.77;;
1601;SDS011;794;48.592;9.634;2023-05-07T10:42:18;2.50;;;2.13;;
1601;SDS011;794;48.592;9.634;2023-05-07T10:44:46;3.27;;;2.97;;
1601;SDS011;794;48.592;9.634;2023-05-07T10:47:14;2.27;;;2.10;;
1601;SDS011;794;48.592;9.634;2023-05-07T10:55:50;3.20;;;3.00;;
1601;SDS011;794;48.592;9.634;2023-05-07T10:58:24;2.83;;;2.60;;
1601;SDS011;794;48.592;9.634;2023-05-07T11:00:56;2.43;;;2.23;;
1601;SDS011;794;48.592;9.634;2023-05-07T11:03:23;3.20;;;2.47;;
1601;SDS011;794;48.592;9.634;2023-05-07T11:08:54;3.33;;;2.40;;
1601;SDS011;794;48.592;9.634;2023-05-07T11:14:22;2.87;;;2.30;;
1601;SDS011;794;48.592;9.634;2023-05-07T11:17:11;3.00;;;2.70;;
1601;SDS011;794;48.592;9.634;2023-05-07T11:19:47;5.37;;;2.50;;
1601;SDS011;794;48.592;9.634;2023-05-07T11:25:06;4.23;;;2.40;;
1601;SDS011;794;48.592;9.634;2023-05-07T11:27:33;2.63;;;1.90;;
1601;SDS011;794;48.592;9.634;2023-05-07T11:30:00;4.13;;;2.80;;
1601;SDS011;794;48.592;9.634;2023-05-07T11:32:29;3.23;;;2.40;;
1601;SDS011;794;48.592;9.634;2023-05-07T11:34:58;3.10;;;2.40;;
1601;SDS011;794;48.592;9.634;2023-05-07T11:37:26;2.13;;;2.03;;
1601;SDS011;794;48.592;9.634;2023-05-07T11:40:01;5.20;;;2.80;;
1601;SDS011;794;48.592;9.634;2023-05-07T11:42:31;5.80;;;2.60;;
1601;SDS011;794;48.592;9.634;2023-05-07T11:45:00;3.60;;;2.90;;
1601;SDS011;794;48.592;9.634;2023-05-07T11:47:31;5.77;;;2.80;;
1601;SDS011;794;48.592;9.634;2023-05-07T11:50:02;2.10;;;1.83;;
1601;SDS011;794;48.592;9.634;2023-05-07T11:52:30;3.37;;;2.97;;
1601;SDS011;794;48.592;9.634;2023-05-07T11:54:58;2.80;;;2.50;;
1601;SDS011;794;48.592;9.634;2023-05-07T11:57:26;2.90;;;2.53;;
1601;SDS011;794;48.592;9.634;2023-05-07T11:59:54;2.50;;;2.30;;
1601;SDS011;794;48.592;9.634;2023-05-07T12:02:21;3.00;;;2.57;;
1601;SDS011;794;48.592;9.634;2023-05-07T12:04:51;4.33;;;2.47;;
1601;SDS011;794;48.592;9.634;2023-05-07T12:07:18;2.87;;;2.57;;
1601;SDS011;794;48.592;9.634;2023-05-07T12:09:45;3.60;;;2.40;;
1601;SDS011;794;48.592;9.634;2023-05-07T12:12:12;3.33;;;2.07;;
1601;SDS011;794;48.592;9.634;2023-05-07T12:14:40;7.30;;;2.70;;
1601;SDS011;794;48.592;9.634;2023-05-07T12:17:08;4.93;;;3.20;;
1601;SDS011;794;48.592;9.634;2023-05-07T12:19:36;3.80;;;2.60;;
1601;SDS011;794;48.592;9.634;2023-05-07T12:22:06;5.37;;;3.03;;
1601;SDS011;794;48.592;9.634;2023-05-07T12:24:43;4.00;;;2.90;;
1601;SDS011;794;48.592;9.634;2023-05-07T12:27:11;3.00;;;2.80;;
1601;SDS011;794;48.592;9.634;2023-05-07T12:29:38;2.80;;;2.60;;
1601;SDS011;794;48.592;9.634;2023-05-07T12:32:12;3.40;;;3.00;;
1601;SDS011;794;48.592;9.634;2023-05-07T12:34:40;5.03;;;2.90;;
1601;SDS011;794;48.592;9.634;2023-05-07T12:37:08;4.30;;;3.20;;
1601;SDS011;794;48.592;9.634;2023-05-07T12:39:35;3.50;;;3.20;;
1601;SDS011;794;48.592;9.634;2023-05-07T12:42:02;4.53;;;3.30;;
1601;SDS011;794;48.592;9.634;2023-05-07T12:44:30;3.50;;;3.20;;
1601;SDS011;794;48.592;9.634;2023-05-07T12:46:58;4.10;;;3.60;;
1601;SDS011;794;48.592;9.634;2023-05-07T12:49:29;4.60;;;3.73;;
1601;SDS011;794;48.592;9.634;2023-05-07T12:51:56;4.70;;;4.10;;
1601;SDS011;794;48.592;9.634;2023-05-07T12:54:29;3.00;;;2.63;;
1601;SDS011;794;48.592;9.634;2023-05-07T12:57:02;4.20;;;3.80;;
1601;SDS011;794;48.592;9.634;2023-05-07T12:59:31;3.47;;;3.17;;
1601;SDS011;794;48.592;9.634;2023-05-07T13:01:58;4.90;;;4.00;;
1601;SDS011;794;48.592;9.634;2023-05-07T13:04:25;6.33;;;3.87;;
1601;SDS011;794;48.592;9.634;2023-05-07T13:06:52;3.80;;;3.17;;
1601;SDS011;794;48.592;9.634;2023-05-07T13:09:19;5.47;;;2.60;;
1601;SDS011;794;48.592;9.634;2023-05-07T13:11:48;7.17;;;3.33;;
1601;SDS011;794;48.592;9.634;2023-05-07T13:14:15;3.63;;;3.13;;
1601;SDS011;794;48.592;9.634;2023-05-07T13:16:41;4.10;;;3.37;;
1601;SDS011;794;48.592;9.634;2023-05-07T13:19:08;3.17;;;2.87;;
1601;SDS011;794;48.592;9.634;2023-05-07T13:21:36;4.70;;;3.07;;
1601;SDS011;794;48.592;9.634;2023-05-07T13:24:03;4.13;;;3.70;;
1601;SDS011;794;48.592;9.634;2023-05-07T13:26:30;4.27;;;3.60;;
1601;SDS011;794;48.592;9.634;2023-05-07T13:28:59;5.50;;;3.60;;
1601;SDS011;794;48.592;9.634;2023-05-07T13:31:26;4.27;;;3.83;;
1601;SDS011;794;48.592;9.634;2023-05-07T13:33:52;3.20;;;3.00;;
1601;SDS011;794;48.592;9.634;2023-05-07T13:36:21;5.67;;;3.40;;
1601;SDS011;794;48.592;9.634;2023-05-07T13:38:48;3.77;;;3.47;;
1601;SDS011;794;48.592;9.634;2023-05-07T13:41:16;4.50;;;3.37;;
1601;SDS011;794;48.592;9.634;2023-05-07T13:43:43;3.53;;;3.23;;
1601;SDS011;794;48.592;9.634;2023-05-07T13:46:11;3.50;;;3.20;;
1601;SDS011;794;48.592;9.634;2023-05-07T13:48:38;3.30;;;3.00;;
1601;SDS011;794;48.592;9.634;2023-05-07T13:51:06;3.57;;;3.30;;
1601;SDS011;794;48.592;9.634;2023-05-07T13:53:33;3.70;;;3.40;;
1601;SDS011;794;48.592;9.634;2023-05-07T13:56:01;3.20;;;3.00;;
1601;SDS011;794;48.592;9.634;2023-05-07T13:58:29;4.57;;;3.47;;
1601;SDS011;794;48.592;9.634;2023-05-07T14:00:56;3.70;;;3.30;;
1601;SDS011;794;48.592;9.634;2023-05-07T14:03:24;4.90;;;3.73;;
1601;SDS011;794;48.592;9.634;2023-05-07T14:05:51;4.70;;;3.27;;
1601;SDS011;794;48.592;9.634;2023-05-07T14:08:18;3.63;;;3.43;;
1601;SDS011;794;48.592;9.634;2023-05-07T14:10:45;3.40;;;3.13;;
1601;SDS011;794;48.592;9.634;2023-05-07T14:13:12;3.70;;;3.40;;
1601;SDS011;794;48.592;9.634;2023-05-07T14:15:39;5.70;;;3.40;;
1601;SDS011;794;48.592;9.634;2023-05-07T14:18:08;4.57;;;4.10;;
1601;SDS011;794;48.592;9.634;2023-05-07T14:20:37;3.37;;;3.03;;
1601;SDS011;794;48.592;9.634;2023-05-07T14:23:04;3.33;;;3.10;;
1601;SDS011;794;48.592;9.634;2023-05-07T14:25:31;2.87;;;2.60;;
1601;SDS011;794;48.592;9.634;2023-05-07T14:27:58;3.37;;;2.40;;
1601;SDS011;794;48.592;9.634;2023-05-07T14:30:25;4.60;;;3.00;;
1601;SDS011;794;48.592;9.634;2023-05-07T14:32:52;3.00;;;2.50;;
1601;SDS011;794;48.592;9.634;2023-05-07T14:35:19;2.13;;;1.93;;
1601;SDS011;794;48.592;9.634;2023-05-07T14:37:48;2.60;;;2.40;;
1601;SDS011;794;48.592;9.634;2023-05-07T14:40:14;2.40;;;2.20;;
1601;SDS011;794;48.592;9.634;2023-05-07T14:42:41;2.47;;;2.30;;
1601;SDS011;794;48.592;9.634;2023-05-07T14:45:09;2.67;;;2.30;;
1601;SDS011;794;48.592;9.634;2023-05-07T14:47:36;2.60;;;2.00;;
1601;SDS011;794;48.592;9.634;2023-05-07T14:50:03;3.03;;;1.90;;
1601;SDS011;794;48.592;9.634;2023-05-07T14:52:30;4.90;;;2.30;;
1601;SDS011;794;48.592;9.634;2023-05-07T14:54:59;3.03;;;2.03;;
1601;SDS011;794;48.592;9.634;2023-05-07T14:57:26;2.40;;;2.20;;
1601;SDS011;794;48.592;9.634;2023-05-07T14:59:52;3.53;;;2.20;;
1601;SDS011;794;48.592;9.634;2023-05-07T15:02:19;2.40;;;2.20;;
1601;SDS011;794;48.592;9.634;2023-05-07T15:04:46;2.60;;;2.20;;
1601;SDS011;794;48.592;9.634;2023-05-07T15:07:15;2.60;;;2.40;;
1601;SDS011;794;48.592;9.634;2023-05-07T15:09:43;3.13;;;2.17;;
1601;SDS011;794;48.592;9.634;2023-05-07T15:12:12;3.80;;;2.73;;
1601;SDS011;794;48.592;9.634;2023-05-07T15:14:39;3.83;;;2.90;;
1601;SDS011;794;48.592;9.634;2023-05-07T15:17:06;5.93;;;2.70;;
1601;SDS011;794;48.592;9.634;2023-05-07T15:19:33;5.13;;;2.53;;
1601;SDS011;794;48.592;9.634;2023-05-07T15:22:00;2.83;;;2.60;;
1601;SDS011;794;48.592;9.634;2023-05-07T15:24:27;5.47;;;3.17;;
1601;SDS011;794;48.592;9.634;2023-05-07T15:26:55;5.37;;;2.80;;
1601;SDS011;794;48.592;9.634;2023-05-07T15:29:24;5.63;;;2.70;;
1601;SDS011;794;48.592;9.634;2023-05-07T15:31:51;6.57;;;3.00;;
1601;SDS011;794;48.592;9.634;2023-05-07T15:34:18;3.43;;;3.13;;
1601;SDS011;794;48.592;9.634;2023-05-07T15:36:45;3.00;;;2.70;;
1601;SDS011;794;48.592;9.634;2023-05-07T15:39:12;3.33;;;2.67;;
1601;SDS011;794;48.592;9.634;2023-05-07T15:41:40;2.63;;;2.43;;
1601;SDS011;794;48.592;9.634;2023-05-07T15:44:06;4.77;;;2.57;;
1601;SDS011;794;48.592;9.634;2023-05-07T15:46:35;3.40;;;3.10;;
1601;SDS011;794;48.592;9.634;2023-05-07T15:49:02;3.03;;;2.70;;